sensor_id;sensor_type;location;lat;lon;timestamp;temperature;humidity
35804;DHT22;21924;51.934;7.414;2023-06-10T00:00:18;19.80;99.90
35804;DHT22;21924;51.934;7.414;2023-06-10T00:03:02;19.70;99.90
35804;DHT22;21924;51.934;7.414;2023-06-10T00:05:46;19.70;99.90
35804;DHT22;21924;51.934;7.414;2023-06-10T00:08:31;19.60;99.90
35804;DHT22;21924;51.934;7.414;2023-06-10T00:11:15;19.60;99.90
35804;DHT22;21924;51.934;7.414;2023-06-10T00:13:59;19.60;99.90
35804;DHT22;21924;51.934;7.414;2023-06-10T00:16:43;19.50;99.90
35804;DHT22;21924;51.934;7.414;2023-06-10T00:19:28;19.50;99.90
35804;DHT22;21924;51.934;7.414;2023-06-10T00:22:14;19.50;99.90
35804;DHT22;21924;51.934;7.414;2023-06-10T00:24:58;19.40;99.90
35804;DHT22;21924;51.934;7.414;2023-06-10T00:27:42;19.40;99.90
35804;DHT22;21924;51.934;7.414;2023-06-10T00:30:26;19.30;99.90
35804;DHT22;21924;51.934;7.414;2023-06-10T00:33:10;19.30;99.90
35804;DHT22;21924;51.934;7.414;2023-06-10T00:35:55;19.30;99.90
35804;DHT22;21924;51.934;7.414;2023-06-10T00:38:39;19.20;99.90
35804;DHT22;21924;51.934;7.414;2023-06-10T00:41:24;19.20;99.90
35804;DHT22;21924;51.934;7.414;2023-06-10T00:44:10;19.10;99.90
35804;DHT22;21924;51.934;7.414;2023-06-10T00:46:54;19.10;99.90
35804;DHT22;21924;51.934;7.414;2023-06-10T00:49:39;19.20;99.90
35804;DHT22;21924;51.934;7.414;2023-06-10T00:52:25;19.20;99.90
35804;DHT22;21924;51.934;7.414;2023-06-10T00:55:11;19.10;99.90
35804;DHT22;21924;51.934;7.414;2023-06-10T00:57:55;19.00;99.90
35804;DHT22;21924;51.934;7.414;2023-06-10T01:00:39;19.10;99.90
35804;DHT22;21924;51.934;7.414;2023-06-10T01:03:24;19.00;99.90
35804;DHT22;21924;51.934;7.414;2023-06-10T01:06:14;19.00;99.90
35804;DHT22;21924;51.934;7.414;2023-06-10T01:09:06;18.90;99.90
35804;DHT22;21924;51.934;7.414;2023-06-10T01:11:59;18.90;99.90
35804;DHT22;21924;51.934;7.414;2023-06-10T01:14:45;18.90;99.90
35804;DHT22;21924;51.934;7.414;2023-06-10T01:17:30;18.80;99.90
35804;DHT22;21924;51.934;7.414;2023-06-10T01:20:15;18.80;99.90
35804;DHT22;21924;51.934;7.414;2023-06-10T01:23:00;18.80;99.90
35804;DHT22;21924;51.934;7.414;2023-06-10T01:25:49;18.80;99.90
35804;DHT22;21924;51.934;7.414;2023-06-10T01:28:38;18.80;99.90
35804;DHT22;21924;51.934;7.414;2023-06-10T01:31:48;18.70;99.90
35804;DHT22;21924;51.934;7.414;2023-06-10T01:34:32;18.70;99.90
35804;DHT22;21924;51.934;7.414;2023-06-10T01:37:17;18.60;99.90
35804;DHT22;21924;51.934;7.414;2023-06-10T01:40:02;18.60;99.90
35804;DHT22;21924;51.934;7.414;2023-06-10T01:42:50;18.60;99.90
35804;DHT22;21924;51.934;7.414;2023-06-10T01:45:36;18.60;99.90
35804;DHT22;21924;51.934;7.414;2023-06-10T01:48:20;18.50;99.90
35804;DHT22;21924;51.934;7.414;2023-06-10T01:51:04;18.50;99.90
35804;DHT22;21924;51.934;7.414;2023-06-10T01:53:48;18.40;99.90
35804;DHT22;21924;51.934;7.414;2023-06-10T01:56:32;18.40;99.90
35804;DHT22;21924;51.934;7.414;2023-06-10T01:59:17;18.40;99.90
35804;DHT22;21924;51.934;7.414;2023-06-10T02:02:01;18.40;99.90
35804;DHT22;21924;51.934;7.414;2023-06-10T02:04:45;18.30;99.90
35804;DHT22;21924;51.934;7.414;2023-06-10T02:07:29;18.30;99.90
35804;DHT22;21924;51.934;7.414;2023-06-10T02:10:13;18.20;99.90
35804;DHT22;21924;51.934;7.414;2023-06-10T02:12:57;18.20;99.90
35804;DHT22;21924;51.934;7.414;2023-06-10T02:15:41;18.20;99.90
35804;DHT22;21924;51.934;7.414;2023-06-10T02:18:25;18.20;99.90
35804;DHT22;21924;51.934;7.414;2023-06-10T02:21:10;18.20;99.90
35804;DHT22;21924;51.934;7.414;2023-06-10T02:23:54;18.10;99.90
35804;DHT22;21924;51.934;7.414;2023-06-10T02:26:40;18.10;99.90
35804;DHT22;21924;51.934;7.414;2023-06-10T02:29:24;18.10;99.90
35804;DHT22;21924;51.934;7.414;2023-06-10T02:32:08;18.10;99.90
35804;DHT22;21924;51.934;7.414;2023-06-10T02:34:53;18.10;99.90
35804;DHT22;21924;51.934;7.414;2023-06-10T02:37:37;18.10;99.90
35804;DHT22;21924;51.934;7.414;2023-06-10T02:40:21;18.00;99.90
35804;DHT22;21924;51.934;7.414;2023-06-10T02:43:05;17.90;99.90
35804;DHT22;21924;51.934;7.414;2023-06-10T02:45:49;17.90;99.90
35804;DHT22;21924;51.934;7.414;2023-06-10T02:48:40;17.90;99.90
35804;DHT22;21924;51.934;7.414;2023-06-10T02:51:24;17.90;99.90
35804;DHT22;21924;51.934;7.414;2023-06-10T02:54:08;17.80;99.90
35804;DHT22;21924;51.934;7.414;2023-06-10T02:56:52;17.80;99.90
35804;DHT22;21924;51.934;7.414;2023-06-10T02:59:37;17.80;99.90
35804;DHT22;21924;51.934;7.414;2023-06-10T03:02:21;17.70;99.90
35804;DHT22;21924;51.934;7.414;2023-06-10T03:05:06;17.70;99.90
35804;DHT22;21924;51.934;7.414;2023-06-10T03:07:54;17.70;99.90
35804;DHT22;21924;51.934;7.414;2023-06-10T03:10:38;17.60;99.90
35804;DHT22;21924;51.934;7.414;2023-06-10T03:13:22;17.70;99.90
35804;DHT22;21924;51.934;7.414;2023-06-10T03:16:07;17.60;99.90
35804;DHT22;21924;51.934;7.414;2023-06-10T03:18:51;17.60;99.90
35804;DHT22;21924;51.934;7.414;2023-06-10T03:21:36;17.60;99.90
35804;DHT22;21924;51.934;7.414;2023-06-10T03:24:21;17.40;99.90
35804;DHT22;21924;51.934;7.414;2023-06-10T03:27:08;17.50;99.90
35804;DHT22;21924;51.934;7.414;2023-06-10T03:29:53;17.50;99.90
35804;DHT22;21924;51.934;7.414;2023-06-10T03:32:37;17.50;99.90
35804;DHT22;21924;51.934;7.414;2023-06-10T03:35:21;17.50;99.90
35804;DHT22;21924;51.934;7.414;2023-06-10T03:38:06;17.50;99.90
35804;DHT22;21924;51.934;7.414;2023-06-10T03:40:49;17.50;99.90
35804;DHT22;21924;51.934;7.414;2023-06-10T03:43:34;17.50;99.90
35804;DHT22;21924;51.934;7.414;2023-06-10T03:46:18;17.50;99.90
35804;DHT22;21924;51.934;7.414;2023-06-10T03:49:03;17.50;99.90
35804;DHT22;21924;51.934;7.414;2023-06-10T03:51:47;17.40;99.90
35804;DHT22;21924;51.934;7.414;2023-06-10T03:54:31;17.40;99.90
35804;DHT22;21924;51.934;7.414;2023-06-10T03:57:15;17.40;99.90
35804;DHT22;21924;51.934;7.414;2023-06-10T03:59:59;17.40;99.90
35804;DHT22;21924;51.934;7.414;2023-06-10T04:02:43;17.40;99.90
35804;DHT22;21924;51.934;7.414;2023-06-10T04:05:32;17.40;99.90
35804;DHT22;21924;51.934;7.414;2023-06-10T04:08:16;17.40;99.90
35804;DHT22;21924;51.934;7.414;2023-06-10T04:11:00;17.50;99.90
35804;DHT22;21924;51.934;7.414;2023-06-10T04:13:45;17.50;99.90
35804;DHT22;21924;51.934;7.414;2023-06-10T04:16:29;17.50;99.90
35804;DHT22;21924;51.934;7.414;2023-06-10T04:19:13;17.50;99.90
35804;DHT22;21924;51.934;7.414;2023-06-10T04:21:57;17.70;99.90
35804;DHT22;21924;51.934;7.414;2023-06-10T04:24:41;17.90;99.90
35804;DHT22;21924;51.934;7.414;2023-06-10T04:27:26;18.10;99.90
35804;DHT22;21924;51.934;7.414;2023-06-10T04:30:11;18.30;99.90
35804;DHT22;21924;51.934;7.414;2023-06-10T04:32:55;18.50;99.90
35804;DHT22;21924;51.934;7.414;2023-06-10T04:35:40;18.60;99.90
35804;DHT22;21924;51.934;7.414;2023-06-10T04:38:24;18.70;99.90
35804;DHT22;21924;51.934;7.414;2023-06-10T04:41:08;18.90;99.90
35804;DHT22;21924;51.934;7.414;2023-06-10T04:43:52;19.00;99.90
35804;DHT22;21924;51.934;7.414;2023-06-10T04:46:37;19.00;99.90
35804;DHT22;21924;51.934;7.414;2023-06-10T04:49:22;19.10;99.90
35804;DHT22;21924;51.934;7.414;2023-06-10T04:52:06;19.20;99.90
35804;DHT22;21924;51.934;7.414;2023-06-10T04:54:50;19.20;99.90
35804;DHT22;21924;51.934;7.414;2023-06-10T04:57:35;19.20;99.90
35804;DHT22;21924;51.934;7.414;2023-06-10T05:00:19;19.10;99.90
35804;DHT22;21924;51.934;7.414;2023-06-10T05:03:03;19.00;99.90
35804;DHT22;21924;51.934;7.414;2023-06-10T05:05:47;18.90;99.90
35804;DHT22;21924;51.934;7.414;2023-06-10T05:08:31;18.80;99.90
35804;DHT22;21924;51.934;7.414;2023-06-10T05:11:15;18.90;99.90
35804;DHT22;21924;51.934;7.414;2023-06-10T05:13:59;19.00;99.90
35804;DHT22;21924;51.934;7.414;2023-06-10T05:16:43;19.10;99.90
35804;DHT22;21924;51.934;7.414;2023-06-10T05:19:27;19.30;99.90
35804;DHT22;21924;51.934;7.414;2023-06-10T05:22:12;19.50;99.90
35804;DHT22;21924;51.934;7.414;2023-06-10T05:24:57;19.40;99.90
35804;DHT22;21924;51.934;7.414;2023-06-10T05:27:41;19.40;99.90
35804;DHT22;21924;51.934;7.414;2023-06-10T05:30:26;19.30;99.90
35804;DHT22;21924;51.934;7.414;2023-06-10T05:33:10;19.30;99.90
35804;DHT22;21924;51.934;7.414;2023-06-10T05:35:54;19.40;99.90
35804;DHT22;21924;51.934;7.414;2023-06-10T05:38:38;19.40;99.90
35804;DHT22;21924;51.934;7.414;2023-06-10T05:41:22;19.30;99.90
35804;DHT22;21924;51.934;7.414;2023-06-10T05:44:07;19.30;99.90
35804;DHT22;21924;51.934;7.414;2023-06-10T05:46:51;19.30;99.90
35804;DHT22;21924;51.934;7.414;2023-06-10T05:49:35;19.30;99.90
35804;DHT22;21924;51.934;7.414;2023-06-10T05:52:19;19.20;99.90
35804;DHT22;21924;51.934;7.414;2023-06-10T05:55:04;19.20;99.90
35804;DHT22;21924;51.934;7.414;2023-06-10T05:57:57;19.30;99.90
35804;DHT22;21924;51.934;7.414;2023-06-10T06:00:41;19.30;99.90
35804;DHT22;21924;51.934;7.414;2023-06-10T06:03:25;19.40;99.90
35804;DHT22;21924;51.934;7.414;2023-06-10T06:06:11;19.40;99.90
35804;DHT22;21924;51.934;7.414;2023-06-10T06:08:55;19.50;99.90
35804;DHT22;21924;51.934;7.414;2023-06-10T06:11:40;19.60;99.90
35804;DHT22;21924;51.934;7.414;2023-06-10T06:14:25;19.60;99.90
35804;DHT22;21924;51.934;7.414;2023-06-10T06:17:09;19.70;99.90
35804;DHT22;21924;51.934;7.414;2023-06-10T06:19:53;19.80;99.90
35804;DHT22;21924;51.934;7.414;2023-06-10T06:22:37;19.70;99.90
35804;DHT22;21924;51.934;7.414;2023-06-10T06:25:21;19.90;99.90
35804;DHT22;21924;51.934;7.414;2023-06-10T06:28:06;20.20;99.90
35804;DHT22;21924;51.934;7.414;2023-06-10T06:30:50;20.50;99.90
35804;DHT22;21924;51.934;7.414;2023-06-10T06:33:34;20.60;99.90
35804;DHT22;21924;51.934;7.414;2023-06-10T06:36:18;20.70;99.90
35804;DHT22;21924;51.934;7.414;2023-06-10T06:39:02;20.70;99.90
35804;DHT22;21924;51.934;7.414;2023-06-10T06:41:46;20.70;99.90
35804;DHT22;21924;51.934;7.414;2023-06-10T06:44:30;20.80;99.90
35804;DHT22;21924;51.934;7.414;2023-06-10T06:47:14;20.80;99.90
35804;DHT22;21924;51.934;7.414;2023-06-10T06:49:58;20.80;99.90
35804;DHT22;21924;51.934;7.414;2023-06-10T06:52:42;20.90;99.90
35804;DHT22;21924;51.934;7.414;2023-06-10T06:55:27;21.00;99.90
35804;DHT22;21924;51.934;7.414;2023-06-10T06:58:11;21.10;99.90
35804;DHT22;21924;51.934;7.414;2023-06-10T07:00:55;21.20;99.90
35804;DHT22;21924;51.934;7.414;2023-06-10T07:03:39;21.30;99.90
35804;DHT22;21924;51.934;7.414;2023-06-10T07:06:23;21.40;99.90
35804;DHT22;21924;51.934;7.414;2023-06-10T07:09:07;21.40;99.90
35804;DHT22;21924;51.934;7.414;2023-06-10T07:11:52;21.60;99.90
35804;DHT22;21924;51.934;7.414;2023-06-10T07:14:37;21.70;99.90
35804;DHT22;21924;51.934;7.414;2023-06-10T07:17:21;21.70;99.90
35804;DHT22;21924;51.934;7.414;2023-06-10T07:20:05;21.80;99.90
35804;DHT22;21924;51.934;7.414;2023-06-10T07:22:49;22.00;99.90
35804;DHT22;21924;51.934;7.414;2023-06-10T07:25:33;22.20;99.90
35804;DHT22;21924;51.934;7.414;2023-06-10T07:28:17;22.10;99.90
35804;DHT22;21924;51.934;7.414;2023-06-10T07:31:01;22.30;99.90
35804;DHT22;21924;51.934;7.414;2023-06-10T07:33:46;22.40;99.90
35804;DHT22;21924;51.934;7.414;2023-06-10T07:36:30;22.40;99.90
35804;DHT22;21924;51.934;7.414;2023-06-10T07:39:14;22.40;99.90
35804;DHT22;21924;51.934;7.414;2023-06-10T07:41:59;22.40;99.90
35804;DHT22;21924;51.934;7.414;2023-06-10T07:44:43;22.60;99.90
35804;DHT22;21924;51.934;7.414;2023-06-10T07:47:27;22.70;99.90
35804;DHT22;21924;51.934;7.414;2023-06-10T07:50:11;22.80;99.90
35804;DHT22;21924;51.934;7.414;2023-06-10T07:52:55;23.00;99.90
35804;DHT22;21924;51.934;7.414;2023-06-10T07:55:39;23.10;99.90
35804;DHT22;21924;51.934;7.414;2023-06-10T07:58:23;23.10;99.90
35804;DHT22;21924;51.934;7.414;2023-06-10T08:01:07;23.20;99.90
35804;DHT22;21924;51.934;7.414;2023-06-10T08:03:52;23.30;99.90
35804;DHT22;21924;51.934;7.414;2023-06-10T08:06:37;23.50;99.90
35804;DHT22;21924;51.934;7.414;2023-06-10T08:09:20;23.40;99.90
35804;DHT22;21924;51.934;7.414;2023-06-10T08:12:07;23.60;99.90
35804;DHT22;21924;51.934;7.414;2023-06-10T08:14:51;23.70;99.90
35804;DHT22;21924;51.934;7.414;2023-06-10T08:17:36;23.60;99.90
35804;DHT22;21924;51.934;7.414;2023-06-10T08:20:21;23.70;99.90
35804;DHT22;21924;51.934;7.414;2023-06-10T08:23:04;23.70;99.90
35804;DHT22;21924;51.934;7.414;2023-06-10T08:25:49;23.90;99.90
35804;DHT22;21924;51.934;7.414;2023-06-10T08:28:33;23.90;99.90
35804;DHT22;21924;51.934;7.414;2023-06-10T08:31:17;24.10;99.90
35804;DHT22;21924;51.934;7.414;2023-06-10T08:34:01;24.10;99.90
35804;DHT22;21924;51.934;7.414;2023-06-10T08:36:45;24.30;99.90
35804;DHT22;21924;51.934;7.414;2023-06-10T08:39:29;24.40;99.90
35804;DHT22;21924;51.934;7.414;2023-06-10T08:42:23;24.50;99.90
35804;DHT22;21924;51.934;7.414;2023-06-10T08:45:09;24.70;99.90
35804;DHT22;21924;51.934;7.414;2023-06-10T08:47:55;24.70;99.90
35804;DHT22;21924;51.934;7.414;2023-06-10T08:50:40;24.70;99.90
35804;DHT22;21924;51.934;7.414;2023-06-10T08:53:25;24.80;99.90
35804;DHT22;21924;51.934;7.414;2023-06-10T08:56:10;24.90;99.90
35804;DHT22;21924;51.934;7.414;2023-06-10T08:58:56;24.90;99.90
35804;DHT22;21924;51.934;7.414;2023-06-10T09:01:41;24.90;99.90
35804;DHT22;21924;51.934;7.414;2023-06-10T09:04:26;25.00;99.90
35804;DHT22;21924;51.934;7.414;2023-06-10T09:07:10;25.20;99.90
35804;DHT22;21924;51.934;7.414;2023-06-10T09:09:55;25.30;99.90
35804;DHT22;21924;51.934;7.414;2023-06-10T09:12:39;25.50;99.90
35804;DHT22;21924;51.934;7.414;2023-06-10T09:15:24;25.50;99.90
35804;DHT22;21924;51.934;7.414;2023-06-10T09:18:08;25.50;99.90
35804;DHT22;21924;51.934;7.414;2023-06-10T09:20:52;25.60;99.90
35804;DHT22;21924;51.934;7.414;2023-06-10T09:23:36;25.50;99.90
35804;DHT22;21924;51.934;7.414;2023-06-10T09:26:21;25.80;99.90
35804;DHT22;21924;51.934;7.414;2023-06-10T09:29:11;25.90;99.90
35804;DHT22;21924;51.934;7.414;2023-06-10T09:31:55;26.10;99.90
35804;DHT22;21924;51.934;7.414;2023-06-10T09:34:40;26.10;99.90
35804;DHT22;21924;51.934;7.414;2023-06-10T09:37:25;25.90;99.90
35804;DHT22;21924;51.934;7.414;2023-06-10T09:40:10;26.00;99.90
35804;DHT22;21924;51.934;7.414;2023-06-10T09:42:58;26.10;99.90
35804;DHT22;21924;51.934;7.414;2023-06-10T09:45:42;26.40;99.90
35804;DHT22;21924;51.934;7.414;2023-06-10T09:48:27;26.50;99.90
35804;DHT22;21924;51.934;7.414;2023-06-10T09:51:12;26.60;99.90
35804;DHT22;21924;51.934;7.414;2023-06-10T09:53:56;26.80;99.90
35804;DHT22;21924;51.934;7.414;2023-06-10T09:56:40;26.80;99.90
35804;DHT22;21924;51.934;7.414;2023-06-10T09:59:29;26.90;99.90
35804;DHT22;21924;51.934;7.414;2023-06-10T10:02:18;26.80;99.90
35804;DHT22;21924;51.934;7.414;2023-06-10T10:05:03;26.90;99.90
35804;DHT22;21924;51.934;7.414;2023-06-10T10:07:48;27.00;99.90
35804;DHT22;21924;51.934;7.414;2023-06-10T10:10:32;27.30;99.90
35804;DHT22;21924;51.934;7.414;2023-06-10T10:13:16;27.40;99.90
35804;DHT22;21924;51.934;7.414;2023-06-10T10:16:08;27.60;99.90
35804;DHT22;21924;51.934;7.414;2023-06-10T10:18:54;27.60;99.90
35804;DHT22;21924;51.934;7.414;2023-06-10T10:21:40;27.40;99.90
35804;DHT22;21924;51.934;7.414;2023-06-10T10:24:31;27.70;99.90
35804;DHT22;21924;51.934;7.414;2023-06-10T10:27:18;27.90;99.90
35804;DHT22;21924;51.934;7.414;2023-06-10T10:30:03;27.80;99.90
35804;DHT22;21924;51.934;7.414;2023-06-10T10:33:40;27.90;99.90
35804;DHT22;21924;51.934;7.414;2023-06-10T10:36:07;28.20;99.90
35804;DHT22;21924;51.934;7.414;2023-06-10T10:38:51;28.20;99.90
35804;DHT22;21924;51.934;7.414;2023-06-10T10:41:36;28.40;99.90
35804;DHT22;21924;51.934;7.414;2023-06-10T10:44:20;28.50;99.90
35804;DHT22;21924;51.934;7.414;2023-06-10T10:47:07;28.80;99.90
35804;DHT22;21924;51.934;7.414;2023-06-10T10:49:52;29.00;99.90
35804;DHT22;21924;51.934;7.414;2023-06-10T10:52:52;29.00;99.90
35804;DHT22;21924;51.934;7.414;2023-06-10T10:55:40;29.10;99.90
35804;DHT22;21924;51.934;7.414;2023-06-10T10:58:24;29.20;99.90
35804;DHT22;21924;51.934;7.414;2023-06-10T11:01:12;29.30;99.90
35804;DHT22;21924;51.934;7.414;2023-06-10T11:03:56;29.40;99.90
35804;DHT22;21924;51.934;7.414;2023-06-10T11:06:44;29.50;99.90
35804;DHT22;21924;51.934;7.414;2023-06-10T11:09:35;29.10;99.90
35804;DHT22;21924;51.934;7.414;2023-06-10T11:12:22;29.20;99.80
35804;DHT22;21924;51.934;7.414;2023-06-10T11:15:06;29.00;99.90
35804;DHT22;21924;51.934;7.414;2023-06-10T11:21:00;29.70;99.90
35804;DHT22;21924;51.934;7.414;2023-06-10T11:23:44;29.70;99.90
35804;DHT22;21924;51.934;7.414;2023-06-10T11:29:16;29.20;99.90
35804;DHT22;21924;51.934;7.414;2023-06-10T11:32:01;29.60;99.90
35804;DHT22;21924;51.934;7.414;2023-06-10T11:34:52;29.50;99.50
35804;DHT22;21924;51.934;7.414;2023-06-10T11:37:36;29.90;99.90
35804;DHT22;21924;51.934;7.414;2023-06-10T11:40:21;30.00;99.90
35804;DHT22;21924;51.934;7.414;2023-06-10T11:43:05;30.30;99.70
35804;DHT22;21924;51.934;7.414;2023-06-10T11:45:53;30.10;99.20
35804;DHT22;21924;51.934;7.414;2023-06-10T11:48:38;29.90;99.60
35804;DHT22;21924;51.934;7.414;2023-06-10T11:51:23;29.90;99.20
35804;DHT22;21924;51.934;7.414;2023-06-10T11:54:09;30.00;99.20
35804;DHT22;21924;51.934;7.414;2023-06-10T11:56:57;30.10;99.70
35804;DHT22;21924;51.934;7.414;2023-06-10T11:59:41;30.10;99.50
35804;DHT22;21924;51.934;7.414;2023-06-10T12:02:25;29.70;99.50
35804;DHT22;21924;51.934;7.414;2023-06-10T12:05:10;29.90;98.80
35804;DHT22;21924;51.934;7.414;2023-06-10T12:08:10;30.20;99.40
35804;DHT22;21924;51.934;7.414;2023-06-10T12:10:54;30.40;99.50
35804;DHT22;21924;51.934;7.414;2023-06-10T12:13:45;30.60;99.10
35804;DHT22;21924;51.934;7.414;2023-06-10T12:16:31;30.60;98.90
35804;DHT22;21924;51.934;7.414;2023-06-10T12:19:15;30.90;98.50
35804;DHT22;21924;51.934;7.414;2023-06-10T12:22:00;30.90;98.70
35804;DHT22;21924;51.934;7.414;2023-06-10T12:24:45;31.00;98.60
35804;DHT22;21924;51.934;7.414;2023-06-10T12:27:29;31.30;99.00
35804;DHT22;21924;51.934;7.414;2023-06-10T12:30:18;31.30;99.10
35804;DHT22;21924;51.934;7.414;2023-06-10T12:33:02;31.40;99.90
35804;DHT22;21924;51.934;7.414;2023-06-10T12:35:52;30.90;98.90
35804;DHT22;21924;51.934;7.414;2023-06-10T12:38:36;30.40;98.50
35804;DHT22;21924;51.934;7.414;2023-06-10T12:41:22;31.00;99.40
35804;DHT22;21924;51.934;7.414;2023-06-10T12:44:06;31.00;98.70
35804;DHT22;21924;51.934;7.414;2023-06-10T12:46:54;30.70;98.10
35804;DHT22;21924;51.934;7.414;2023-06-10T12:49:38;30.70;98.40
35804;DHT22;21924;51.934;7.414;2023-06-10T12:52:23;31.00;98.90
35804;DHT22;21924;51.934;7.414;2023-06-10T12:55:07;31.40;98.20
35804;DHT22;21924;51.934;7.414;2023-06-10T12:57:51;31.40;97.90
35804;DHT22;21924;51.934;7.414;2023-06-10T13:00:36;30.90;97.60
35804;DHT22;21924;51.934;7.414;2023-06-10T13:03:19;31.40;98.00
35804;DHT22;21924;51.934;7.414;2023-06-10T13:06:04;31.70;98.10
35804;DHT22;21924;51.934;7.414;2023-06-10T13:08:49;32.30;97.50
35804;DHT22;21924;51.934;7.414;2023-06-10T13:11:35;32.80;97.70
35804;DHT22;21924;51.934;7.414;2023-06-10T13:14:19;33.30;96.90
35804;DHT22;21924;51.934;7.414;2023-06-10T13:17:04;33.30;96.20
35804;DHT22;21924;51.934;7.414;2023-06-10T13:19:49;33.10;96.10
35804;DHT22;21924;51.934;7.414;2023-06-10T13:22:34;33.00;96.50
35804;DHT22;21924;51.934;7.414;2023-06-10T13:25:19;33.70;96.20
35804;DHT22;21924;51.934;7.414;2023-06-10T13:28:03;34.20;96.20
35804;DHT22;21924;51.934;7.414;2023-06-10T13:30:47;34.00;95.20
35804;DHT22;21924;51.934;7.414;2023-06-10T13:33:31;34.20;95.00
35804;DHT22;21924;51.934;7.414;2023-06-10T13:36:15;34.30;95.20
35804;DHT22;21924;51.934;7.414;2023-06-10T13:38:59;35.00;95.00
35804;DHT22;21924;51.934;7.414;2023-06-10T13:41:43;34.30;94.60
35804;DHT22;21924;51.934;7.414;2023-06-10T13:44:27;34.70;93.80
35804;DHT22;21924;51.934;7.414;2023-06-10T13:47:15;34.20;93.70
35804;DHT22;21924;51.934;7.414;2023-06-10T13:49:59;33.70;93.80
35804;DHT22;21924;51.934;7.414;2023-06-10T13:52:44;34.20;94.00
35804;DHT22;21924;51.934;7.414;2023-06-10T13:55:28;34.20;93.40
35804;DHT22;21924;51.934;7.414;2023-06-10T13:58:12;33.80;93.30
35804;DHT22;21924;51.934;7.414;2023-06-10T14:00:56;33.60;94.10
35804;DHT22;21924;51.934;7.414;2023-06-10T14:03:42;33.90;94.40
35804;DHT22;21924;51.934;7.414;2023-06-10T14:06:26;34.90;94.00
35804;DHT22;21924;51.934;7.414;2023-06-10T14:09:13;35.10;92.50
35804;DHT22;21924;51.934;7.414;2023-06-10T14:11:57;34.70;92.60
35804;DHT22;21924;51.934;7.414;2023-06-10T14:14:41;34.40;92.60
35804;DHT22;21924;51.934;7.414;2023-06-10T14:17:25;33.90;92.60
35804;DHT22;21924;51.934;7.414;2023-06-10T14:20:10;33.90;92.70
35804;DHT22;21924;51.934;7.414;2023-06-10T14:22:55;33.80;93.00
35804;DHT22;21924;51.934;7.414;2023-06-10T14:25:39;33.60;92.60
35804;DHT22;21924;51.934;7.414;2023-06-10T14:28:23;34.00;92.70
35804;DHT22;21924;51.934;7.414;2023-06-10T14:31:08;34.20;92.30
35804;DHT22;21924;51.934;7.414;2023-06-10T14:33:52;34.90;91.60
35804;DHT22;21924;51.934;7.414;2023-06-10T14:36:36;34.30;92.40
35804;DHT22;21924;51.934;7.414;2023-06-10T14:39:21;34.50;91.60
35804;DHT22;21924;51.934;7.414;2023-06-10T14:42:05;35.00;91.80
35804;DHT22;21924;51.934;7.414;2023-06-10T14:44:50;35.50;91.70
35804;DHT22;21924;51.934;7.414;2023-06-10T14:47:35;36.00;91.80
35804;DHT22;21924;51.934;7.414;2023-06-10T14:50:19;35.90;91.10
35804;DHT22;21924;51.934;7.414;2023-06-10T14:53:04;34.80;91.60
35804;DHT22;21924;51.934;7.414;2023-06-10T14:55:48;35.60;90.80
35804;DHT22;21924;51.934;7.414;2023-06-10T14:58:32;35.70;90.40
35804;DHT22;21924;51.934;7.414;2023-06-10T15:01:16;35.50;90.40
35804;DHT22;21924;51.934;7.414;2023-06-10T15:04:03;35.20;90.40
35804;DHT22;21924;51.934;7.414;2023-06-10T15:06:47;35.00;90.70
35804;DHT22;21924;51.934;7.414;2023-06-10T15:09:33;34.70;90.60
35804;DHT22;21924;51.934;7.414;2023-06-10T15:12:17;33.60;91.10
35804;DHT22;21924;51.934;7.414;2023-06-10T15:15:02;33.20;91.70
35804;DHT22;21924;51.934;7.414;2023-06-10T15:17:47;32.60;91.40
35804;DHT22;21924;51.934;7.414;2023-06-10T15:20:31;32.50;91.40
35804;DHT22;21924;51.934;7.414;2023-06-10T15:23:15;32.80;91.30
35804;DHT22;21924;51.934;7.414;2023-06-10T15:25:59;32.00;91.40
35804;DHT22;21924;51.934;7.414;2023-06-10T15:28:43;31.60;92.10
35804;DHT22;21924;51.934;7.414;2023-06-10T15:31:27;31.10;92.10
35804;DHT22;21924;51.934;7.414;2023-06-10T15:34:11;30.70;92.70
35804;DHT22;21924;51.934;7.414;2023-06-10T15:36:56;30.20;93.10
35804;DHT22;21924;51.934;7.414;2023-06-10T15:39:40;30.10;93.20
35804;DHT22;21924;51.934;7.414;2023-06-10T15:42:24;29.90;93.70
35804;DHT22;21924;51.934;7.414;2023-06-10T15:45:09;29.90;93.80
35804;DHT22;21924;51.934;7.414;2023-06-10T15:47:53;29.70;93.90
35804;DHT22;21924;51.934;7.414;2023-06-10T15:50:38;29.70;93.90
35804;DHT22;21924;51.934;7.414;2023-06-10T15:53:22;29.60;94.10
35804;DHT22;21924;51.934;7.414;2023-06-10T15:56:05;29.60;94.30
35804;DHT22;21924;51.934;7.414;2023-06-10T15:58:49;29.40;94.20
35804;DHT22;21924;51.934;7.414;2023-06-10T16:01:34;29.40;94.10
35804;DHT22;21924;51.934;7.414;2023-06-10T16:04:18;29.40;94.30
35804;DHT22;21924;51.934;7.414;2023-06-10T16:07:02;29.40;94.10
35804;DHT22;21924;51.934;7.414;2023-06-10T16:09:46;29.30;94.50
35804;DHT22;21924;51.934;7.414;2023-06-10T16:12:30;29.10;94.30
35804;DHT22;21924;51.934;7.414;2023-06-10T16:15:14;29.00;94.00
35804;DHT22;21924;51.934;7.414;2023-06-10T16:17:58;28.90;93.90
35804;DHT22;21924;51.934;7.414;2023-06-10T16:20:42;28.80;94.30
35804;DHT22;21924;51.934;7.414;2023-06-10T16:23:26;28.80;93.90
35804;DHT22;21924;51.934;7.414;2023-06-10T16:26:10;28.80;93.80
35804;DHT22;21924;51.934;7.414;2023-06-10T16:28:54;28.80;93.60
35804;DHT22;21924;51.934;7.414;2023-06-10T16:31:38;28.80;93.20
35804;DHT22;21924;51.934;7.414;2023-06-10T16:34:23;28.80;93.40
35804;DHT22;21924;51.934;7.414;2023-06-10T16:37:07;28.90;93.70
35804;DHT22;21924;51.934;7.414;2023-06-10T16:39:51;28.80;93.80
35804;DHT22;21924;51.934;7.414;2023-06-10T16:42:35;28.90;94.30
35804;DHT22;21924;51.934;7.414;2023-06-10T16:45:20;28.70;94.50
35804;DHT22;21924;51.934;7.414;2023-06-10T16:48:04;28.60;94.40
35804;DHT22;21924;51.934;7.414;2023-06-10T16:50:49;28.60;94.30
35804;DHT22;21924;51.934;7.414;2023-06-10T16:53:33;28.50;94.20
35804;DHT22;21924;51.934;7.414;2023-06-10T16:56:17;28.50;94.50
35804;DHT22;21924;51.934;7.414;2023-06-10T16:59:01;28.40;94.70
35804;DHT22;21924;51.934;7.414;2023-06-10T17:01:45;28.50;94.70
35804;DHT22;21924;51.934;7.414;2023-06-10T17:04:29;29.00;94.70
35804;DHT22;21924;51.934;7.414;2023-06-10T17:07:14;29.90;94.10
35804;DHT22;21924;51.934;7.414;2023-06-10T17:10:00;30.90;93.40
35804;DHT22;21924;51.934;7.414;2023-06-10T17:12:44;31.40;92.90
35804;DHT22;21924;51.934;7.414;2023-06-10T17:15:29;31.40;92.90
35804;DHT22;21924;51.934;7.414;2023-06-10T17:18:13;31.80;93.20
35804;DHT22;21924;51.934;7.414;2023-06-10T17:20:57;32.20;92.60
35804;DHT22;21924;51.934;7.414;2023-06-10T17:23:41;32.50;92.30
35804;DHT22;21924;51.934;7.414;2023-06-10T17:26:25;32.90;92.60